Pagrindinis puslapis
METAR-TAF:

METAR-TAF

Oro uostai :

Arar, Saudo Arabija

platuma: 30-54N, ilguma: 041-08E, Aukštis: 555 m

Dabartinis oras

Ataskaita buvo paskelbta 50 minutes, ne 07:00 UTC
Vėjas 11 kt iš Šiaurės
Temperatūra 33°C
Drėgmė 10%
Slėgis 1010 hPa
Matomumas 10 km arba daugiau
nėra debesų žemiau 1500 m ir nėra kamuolinių lietaus debesų

METAR: OERR 140700Z 36011KT CAVOK 33/M02 Q1010 NOSIG

Laikas: 10:50 (07:50 UTC)

Prognozė

Ataskaita buvo paskelbta 8 valandos ir 50 minutes, ne 23:00 UTC
Prognozė galioja nuo 14 metu 00 UTC su 15 metu 06 UTC
Vėjas 10 kt iš Vakarų
Matomumas 10 km arba daugiau
nėra debesų žemiau 1500 m ir nėra kamuolinių lietaus debesų
Tapsmas
nuo 14 metu 06 UTC su 14 metu 08 UTC
Vėjas 10 kt iš Šiaurės
Tapsmas
nuo 14 metu 18 UTC su 14 metu 20 UTC
Vėjas 3 kt nuo kintamojo kryptimis

TAF: OERR 132300Z 1400/1506 28010KT CAVOK BECMG 1406/1408 35010KT BECMG 1418/1420 VRB03KT

Orai ataskaitas ir orų prognozės (METAR, TAF).

turimą stotys yra geltonos ir raudonos taškus žemėlapyje.

Perkelti pele per norėdami pamatyti stoties vardą.

Tada spustelėkite, norėdami matyti oro stebėjimo ir prognozės.

Norėdami pakeisti žemėlapį: spustelėkite ant žalios mygtukų su juodo kryžiaus žemyn,; žalią mygtuką su brūkšneliu, jei norite nutolinti; arba žalių rodyklių gretimoms žemėlapius.


METAR-TAF: